sensor_id;sensor_type;location;lat;lon;timestamp;P1;durP1;ratioP1;P2;durP2;ratioP2
8042;SDS011;4064;48.132;11.366;2023-05-07T00:00:20;6.40;;;3.80;;
8042;SDS011;4064;48.132;11.366;2023-05-07T00:02:46;8.57;;;4.60;;
8042;SDS011;4064;48.132;11.366;2023-05-07T00:05:12;4.70;;;4.30;;
8042;SDS011;4064;48.132;11.366;2023-05-07T00:07:38;4.70;;;4.13;;
8042;SDS011;4064;48.132;11.366;2023-05-07T00:10:04;4.13;;;3.73;;
8042;SDS011;4064;48.132;11.366;2023-05-07T00:12:31;4.23;;;3.83;;
8042;SDS011;4064;48.132;11.366;2023-05-07T00:15:04;6.07;;;4.23;;
8042;SDS011;4064;48.132;11.366;2023-05-07T00:17:33;4.60;;;4.20;;
8042;SDS011;4064;48.132;11.366;2023-05-07T00:19:59;5.10;;;4.60;;
8042;SDS011;4064;48.132;11.366;2023-05-07T00:22:24;4.47;;;4.07;;
8042;SDS011;4064;48.132;11.366;2023-05-07T00:24:51;4.40;;;4.00;;
8042;SDS011;4064;48.132;11.366;2023-05-07T00:27:16;5.07;;;4.53;;
8042;SDS011;4064;48.132;11.366;2023-05-07T00:29:43;5.30;;;3.60;;
8042;SDS011;4064;48.132;11.366;2023-05-07T00:32:08;4.40;;;4.10;;
8042;SDS011;4064;48.132;11.366;2023-05-07T00:34:34;9.53;;;4.83;;
8042;SDS011;4064;48.132;11.366;2023-05-07T00:37:00;4.90;;;4.50;;
8042;SDS011;4064;48.132;11.366;2023-05-07T00:39:26;3.90;;;3.60;;
8042;SDS011;4064;48.132;11.366;2023-05-07T00:41:53;4.30;;;3.70;;
8042;SDS011;4064;48.132;11.366;2023-05-07T00:44:18;3.60;;;3.30;;
8042;SDS011;4064;48.132;11.366;2023-05-07T00:46:44;4.17;;;3.63;;
8042;SDS011;4064;48.132;11.366;2023-05-07T00:49:13;5.00;;;4.50;;
8042;SDS011;4064;48.132;11.366;2023-05-07T00:51:39;5.43;;;3.93;;
8042;SDS011;4064;48.132;11.366;2023-05-07T00:54:06;4.27;;;3.87;;
8042;SDS011;4064;48.132;11.366;2023-05-07T00:56:32;4.70;;;4.03;;
8042;SDS011;4064;48.132;11.366;2023-05-07T00:58:58;3.90;;;3.60;;
8042;SDS011;4064;48.132;11.366;2023-05-07T01:01:25;8.50;;;3.97;;
8042;SDS011;4064;48.132;11.366;2023-05-07T01:03:51;4.20;;;3.70;;
8042;SDS011;4064;48.132;11.366;2023-05-07T01:06:17;4.37;;;4.00;;
8042;SDS011;4064;48.132;11.366;2023-05-07T01:08:46;4.33;;;3.93;;
8042;SDS011;4064;48.132;11.366;2023-05-07T01:11:12;6.50;;;4.07;;
8042;SDS011;4064;48.132;11.366;2023-05-07T01:13:39;6.30;;;4.60;;
8042;SDS011;4064;48.132;11.366;2023-05-07T01:16:06;4.30;;;3.90;;
8042;SDS011;4064;48.132;11.366;2023-05-07T01:18:34;4.07;;;3.77;;
8042;SDS011;4064;48.132;11.366;2023-05-07T01:21:00;4.30;;;3.90;;
8042;SDS011;4064;48.132;11.366;2023-05-07T01:23:29;4.63;;;4.10;;
8042;SDS011;4064;48.132;11.366;2023-05-07T01:25:56;4.03;;;3.33;;
8042;SDS011;4064;48.132;11.366;2023-05-07T01:28:22;4.43;;;3.93;;
8042;SDS011;4064;48.132;11.366;2023-05-07T01:30:52;5.10;;;4.40;;
8042;SDS011;4064;48.132;11.366;2023-05-07T01:33:21;4.70;;;3.90;;
8042;SDS011;4064;48.132;11.366;2023-05-07T01:35:48;5.47;;;4.20;;
8042;SDS011;4064;48.132;11.366;2023-05-07T01:38:17;4.40;;;4.00;;
8042;SDS011;4064;48.132;11.366;2023-05-07T01:40:44;4.80;;;3.77;;
8042;SDS011;4064;48.132;11.366;2023-05-07T01:43:10;4.87;;;4.47;;
8042;SDS011;4064;48.132;11.366;2023-05-07T01:45:36;4.47;;;4.07;;
8042;SDS011;4064;48.132;11.366;2023-05-07T01:48:03;9.13;;;4.73;;
8042;SDS011;4064;48.132;11.366;2023-05-07T01:50:29;5.53;;;4.40;;
8042;SDS011;4064;48.132;11.366;2023-05-07T01:52:57;4.87;;;4.37;;
8042;SDS011;4064;48.132;11.366;2023-05-07T01:55:23;4.50;;;4.10;;
8042;SDS011;4064;48.132;11.366;2023-05-07T01:57:49;7.90;;;4.60;;
8042;SDS011;4064;48.132;11.366;2023-05-07T02:00:15;5.63;;;5.03;;
8042;SDS011;4064;48.132;11.366;2023-05-07T02:02:42;5.30;;;4.80;;
8042;SDS011;4064;48.132;11.366;2023-05-07T02:05:08;5.53;;;5.03;;
8042;SDS011;4064;48.132;11.366;2023-05-07T02:07:34;5.00;;;4.60;;
8042;SDS011;4064;48.132;11.366;2023-05-07T02:10:00;5.87;;;4.80;;
8042;SDS011;4064;48.132;11.366;2023-05-07T02:12:26;9.90;;;4.60;;
8042;SDS011;4064;48.132;11.366;2023-05-07T02:14:51;4.87;;;4.37;;
8042;SDS011;4064;48.132;11.366;2023-05-07T02:17:17;6.53;;;5.03;;
8042;SDS011;4064;48.132;11.366;2023-05-07T02:19:43;4.17;;;3.80;;
8042;SDS011;4064;48.132;11.366;2023-05-07T02:22:10;6.30;;;4.63;;
8042;SDS011;4064;48.132;11.366;2023-05-07T02:24:36;6.70;;;5.00;;
8042;SDS011;4064;48.132;11.366;2023-05-07T02:27:02;4.70;;;4.40;;
8042;SDS011;4064;48.132;11.366;2023-05-07T02:29:28;5.20;;;4.70;;
8042;SDS011;4064;48.132;11.366;2023-05-07T02:31:55;5.60;;;5.00;;
8042;SDS011;4064;48.132;11.366;2023-05-07T02:34:21;5.13;;;4.60;;
8042;SDS011;4064;48.132;11.366;2023-05-07T02:36:46;5.50;;;4.77;;
8042;SDS011;4064;48.132;11.366;2023-05-07T02:39:13;4.60;;;4.20;;
8042;SDS011;4064;48.132;11.366;2023-05-07T02:41:40;5.40;;;4.60;;
8042;SDS011;4064;48.132;11.366;2023-05-07T02:44:07;5.23;;;4.73;;
8042;SDS011;4064;48.132;11.366;2023-05-07T02:46:32;5.47;;;4.97;;
8042;SDS011;4064;48.132;11.366;2023-05-07T02:48:58;6.20;;;4.90;;
8042;SDS011;4064;48.132;11.366;2023-05-07T02:51:25;5.27;;;4.77;;
8042;SDS011;4064;48.132;11.366;2023-05-07T02:53:51;6.10;;;5.50;;
8042;SDS011;4064;48.132;11.366;2023-05-07T02:56:17;5.63;;;5.10;;
8042;SDS011;4064;48.132;11.366;2023-05-07T02:58:43;6.70;;;5.10;;
8042;SDS011;4064;48.132;11.366;2023-05-07T03:01:09;5.47;;;5.00;;
8042;SDS011;4064;48.132;11.366;2023-05-07T03:03:35;6.07;;;4.50;;
8042;SDS011;4064;48.132;11.366;2023-05-07T03:06:01;6.70;;;4.50;;
8042;SDS011;4064;48.132;11.366;2023-05-07T03:08:27;5.00;;;4.60;;
8042;SDS011;4064;48.132;11.366;2023-05-07T03:10:53;3.87;;;3.57;;
8042;SDS011;4064;48.132;11.366;2023-05-07T03:13:20;5.20;;;4.70;;
8042;SDS011;4064;48.132;11.366;2023-05-07T03:15:46;4.90;;;4.50;;
8042;SDS011;4064;48.132;11.366;2023-05-07T03:18:12;4.40;;;4.10;;
8042;SDS011;4064;48.132;11.366;2023-05-07T03:20:37;4.53;;;4.13;;
8042;SDS011;4064;48.132;11.366;2023-05-07T03:23:03;4.87;;;4.47;;
8042;SDS011;4064;48.132;11.366;2023-05-07T03:25:29;5.47;;;5.07;;
8042;SDS011;4064;48.132;11.366;2023-05-07T03:27:55;8.03;;;5.23;;
8042;SDS011;4064;48.132;11.366;2023-05-07T03:30:21;4.40;;;4.00;;
8042;SDS011;4064;48.132;11.366;2023-05-07T03:32:47;4.53;;;4.13;;
8042;SDS011;4064;48.132;11.366;2023-05-07T03:35:13;7.73;;;4.80;;
8042;SDS011;4064;48.132;11.366;2023-05-07T03:37:39;4.90;;;4.47;;
8042;SDS011;4064;48.132;11.366;2023-05-07T03:40:06;5.13;;;4.67;;
8042;SDS011;4064;48.132;11.366;2023-05-07T03:42:33;5.20;;;4.70;;
8042;SDS011;4064;48.132;11.366;2023-05-07T03:44:59;4.93;;;4.50;;
8042;SDS011;4064;48.132;11.366;2023-05-07T03:47:25;5.40;;;4.90;;
8042;SDS011;4064;48.132;11.366;2023-05-07T03:49:50;5.07;;;4.60;;
8042;SDS011;4064;48.132;11.366;2023-05-07T03:52:17;6.33;;;5.00;;
8042;SDS011;4064;48.132;11.366;2023-05-07T03:54:48;6.07;;;5.07;;
8042;SDS011;4064;48.132;11.366;2023-05-07T03:57:14;4.80;;;4.40;;
8042;SDS011;4064;48.132;11.366;2023-05-07T03:59:40;5.20;;;4.70;;
8042;SDS011;4064;48.132;11.366;2023-05-07T04:02:06;6.77;;;4.80;;
8042;SDS011;4064;48.132;11.366;2023-05-07T04:04:32;4.33;;;3.97;;
8042;SDS011;4064;48.132;11.366;2023-05-07T04:06:58;5.03;;;4.20;;
8042;SDS011;4064;48.132;11.366;2023-05-07T04:09:24;5.07;;;4.57;;
8042;SDS011;4064;48.132;11.366;2023-05-07T04:11:50;4.40;;;4.00;;
8042;SDS011;4064;48.132;11.366;2023-05-07T04:14:17;7.13;;;4.50;;
8042;SDS011;4064;48.132;11.366;2023-05-07T04:16:43;4.80;;;4.40;;
8042;SDS011;4064;48.132;11.366;2023-05-07T04:19:08;4.77;;;4.10;;
8042;SDS011;4064;48.132;11.366;2023-05-07T04:21:34;5.27;;;4.77;;
8042;SDS011;4064;48.132;11.366;2023-05-07T04:24:00;5.20;;;4.70;;
8042;SDS011;4064;48.132;11.366;2023-05-07T04:26:27;4.83;;;4.00;;
8042;SDS011;4064;48.132;11.366;2023-05-07T04:28:53;5.57;;;5.07;;
8042;SDS011;4064;48.132;11.366;2023-05-07T04:31:19;5.30;;;4.80;;
8042;SDS011;4064;48.132;11.366;2023-05-07T04:33:44;6.03;;;5.43;;
8042;SDS011;4064;48.132;11.366;2023-05-07T04:36:10;5.07;;;4.67;;
8042;SDS011;4064;48.132;11.366;2023-05-07T04:38:36;5.70;;;4.93;;
8042;SDS011;4064;48.132;11.366;2023-05-07T04:41:03;6.97;;;4.77;;
8042;SDS011;4064;48.132;11.366;2023-05-07T04:43:30;4.40;;;4.00;;
8042;SDS011;4064;48.132;11.366;2023-05-07T04:45:56;5.13;;;4.47;;
8042;SDS011;4064;48.132;11.366;2023-05-07T04:48:21;4.37;;;3.97;;
8042;SDS011;4064;48.132;11.366;2023-05-07T04:50:47;13.20;;;5.90;;
8042;SDS011;4064;48.132;11.366;2023-05-07T04:53:14;5.20;;;4.70;;
8042;SDS011;4064;48.132;11.366;2023-05-07T04:55:40;4.80;;;4.40;;
8042;SDS011;4064;48.132;11.366;2023-05-07T04:58:07;7.43;;;4.17;;
8042;SDS011;4064;48.132;11.366;2023-05-07T05:00:33;6.23;;;4.80;;
8042;SDS011;4064;48.132;11.366;2023-05-07T05:02:59;5.30;;;4.90;;
8042;SDS011;4064;48.132;11.366;2023-05-07T05:05:25;4.40;;;4.00;;
8042;SDS011;4064;48.132;11.366;2023-05-07T05:07:51;4.87;;;4.47;;
8042;SDS011;4064;48.132;11.366;2023-05-07T05:10:17;4.90;;;4.40;;
8042;SDS011;4064;48.132;11.366;2023-05-07T05:12:43;4.20;;;3.80;;
8042;SDS011;4064;48.132;11.366;2023-05-07T05:15:10;4.00;;;3.40;;
8042;SDS011;4064;48.132;11.366;2023-05-07T05:17:37;3.60;;;3.30;;
8042;SDS011;4064;48.132;11.366;2023-05-07T05:20:03;4.03;;;3.30;;
8042;SDS011;4064;48.132;11.366;2023-05-07T05:22:33;3.30;;;3.03;;
8042;SDS011;4064;48.132;11.366;2023-05-07T05:25:00;2.97;;;2.77;;
8042;SDS011;4064;48.132;11.366;2023-05-07T05:27:29;3.40;;;3.10;;
8042;SDS011;4064;48.132;11.366;2023-05-07T05:29:55;3.00;;;2.80;;
8042;SDS011;4064;48.132;11.366;2023-05-07T05:32:21;2.97;;;2.63;;
8042;SDS011;4064;48.132;11.366;2023-05-07T05:34:47;4.27;;;3.70;;
8042;SDS011;4064;48.132;11.366;2023-05-07T05:37:13;2.60;;;2.40;;
8042;SDS011;4064;48.132;11.366;2023-05-07T05:39:39;3.43;;;3.13;;
8042;SDS011;4064;48.132;11.366;2023-05-07T05:42:05;3.93;;;3.53;;
8042;SDS011;4064;48.132;11.366;2023-05-07T05:44:31;3.90;;;3.37;;
8042;SDS011;4064;48.132;11.366;2023-05-07T05:46:56;4.83;;;3.70;;
8042;SDS011;4064;48.132;11.366;2023-05-07T05:49:24;4.03;;;3.70;;
8042;SDS011;4064;48.132;11.366;2023-05-07T05:51:50;4.00;;;3.70;;
8042;SDS011;4064;48.132;11.366;2023-05-07T05:54:16;5.03;;;3.57;;
8042;SDS011;4064;48.132;11.366;2023-05-07T05:56:42;3.80;;;3.50;;
8042;SDS011;4064;48.132;11.366;2023-05-07T05:59:08;3.80;;;3.50;;
8042;SDS011;4064;48.132;11.366;2023-05-07T06:01:35;4.33;;;3.80;;
8042;SDS011;4064;48.132;11.366;2023-05-07T06:04:00;5.40;;;3.43;;
8042;SDS011;4064;48.132;11.366;2023-05-07T06:06:26;5.07;;;3.43;;
8042;SDS011;4064;48.132;11.366;2023-05-07T06:08:53;5.43;;;3.20;;
8042;SDS011;4064;48.132;11.366;2023-05-07T06:11:19;4.30;;;3.90;;
8042;SDS011;4064;48.132;11.366;2023-05-07T06:13:45;3.90;;;3.60;;
8042;SDS011;4064;48.132;11.366;2023-05-07T06:16:11;4.40;;;3.97;;
8042;SDS011;4064;48.132;11.366;2023-05-07T06:18:37;4.07;;;3.77;;
8042;SDS011;4064;48.132;11.366;2023-05-07T06:21:03;3.80;;;3.10;;
8042;SDS011;4064;48.132;11.366;2023-05-07T06:23:29;7.33;;;3.77;;
8042;SDS011;4064;48.132;11.366;2023-05-07T06:25:55;7.30;;;4.37;;
8042;SDS011;4064;48.132;11.366;2023-05-07T06:28:20;4.63;;;4.23;;
8042;SDS011;4064;48.132;11.366;2023-05-07T06:30:46;3.90;;;3.60;;
8042;SDS011;4064;48.132;11.366;2023-05-07T06:33:14;3.97;;;3.67;;
8042;SDS011;4064;48.132;11.366;2023-05-07T06:35:41;6.30;;;3.60;;
8042;SDS011;4064;48.132;11.366;2023-05-07T06:38:07;3.80;;;3.50;;
8042;SDS011;4064;48.132;11.366;2023-05-07T06:40:33;4.83;;;3.90;;
8042;SDS011;4064;48.132;11.366;2023-05-07T06:42:59;3.73;;;3.43;;
8042;SDS011;4064;48.132;11.366;2023-05-07T06:45:25;3.70;;;3.40;;
8042;SDS011;4064;48.132;11.366;2023-05-07T06:47:50;5.30;;;3.40;;
8042;SDS011;4064;48.132;11.366;2023-05-07T06:50:16;4.77;;;3.80;;
8042;SDS011;4064;48.132;11.366;2023-05-07T06:52:42;4.10;;;3.80;;
8042;SDS011;4064;48.132;11.366;2023-05-07T06:55:08;3.10;;;2.90;;
8042;SDS011;4064;48.132;11.366;2023-05-07T06:57:36;3.43;;;3.03;;
8042;SDS011;4064;48.132;11.366;2023-05-07T07:00:03;4.00;;;3.30;;
8042;SDS011;4064;48.132;11.366;2023-05-07T07:02:33;4.10;;;3.30;;
8042;SDS011;4064;48.132;11.366;2023-05-07T07:04:59;7.90;;;3.10;;
8042;SDS011;4064;48.132;11.366;2023-05-07T07:07:25;3.50;;;3.20;;
8042;SDS011;4064;48.132;11.366;2023-05-07T07:09:51;4.40;;;3.70;;
8042;SDS011;4064;48.132;11.366;2023-05-07T07:12:16;3.30;;;2.47;;
8042;SDS011;4064;48.132;11.366;2023-05-07T07:14:42;4.07;;;3.30;;
8042;SDS011;4064;48.132;11.366;2023-05-07T07:17:08;4.87;;;2.77;;
8042;SDS011;4064;48.132;11.366;2023-05-07T07:19:34;3.07;;;2.63;;
8042;SDS011;4064;48.132;11.366;2023-05-07T07:22:00;3.10;;;2.73;;
8042;SDS011;4064;48.132;11.366;2023-05-07T07:24:26;3.27;;;2.90;;
8042;SDS011;4064;48.132;11.366;2023-05-07T07:26:52;2.50;;;2.20;;
8042;SDS011;4064;48.132;11.366;2023-05-07T07:29:18;2.87;;;2.50;;
8042;SDS011;4064;48.132;11.366;2023-05-07T07:31:43;2.40;;;2.20;;
8042;SDS011;4064;48.132;11.366;2023-05-07T07:34:09;2.57;;;2.37;;
8042;SDS011;4064;48.132;11.366;2023-05-07T07:36:36;2.97;;;2.50;;
8042;SDS011;4064;48.132;11.366;2023-05-07T07:39:01;2.93;;;2.23;;
8042;SDS011;4064;48.132;11.366;2023-05-07T07:41:27;2.70;;;2.17;;
8042;SDS011;4064;48.132;11.366;2023-05-07T07:43:53;2.30;;;2.10;;
8042;SDS011;4064;48.132;11.366;2023-05-07T07:46:19;2.03;;;1.93;;
8042;SDS011;4064;48.132;11.366;2023-05-07T07:48:45;2.27;;;2.07;;
8042;SDS011;4064;48.132;11.366;2023-05-07T07:51:11;2.50;;;2.30;;
8042;SDS011;4064;48.132;11.366;2023-05-07T07:53:36;3.80;;;2.40;;
8042;SDS011;4064;48.132;11.366;2023-05-07T07:56:02;2.67;;;2.30;;
8042;SDS011;4064;48.132;11.366;2023-05-07T07:58:28;2.93;;;2.27;;
8042;SDS011;4064;48.132;11.366;2023-05-07T08:00:54;2.47;;;2.17;;
8042;SDS011;4064;48.132;11.366;2023-05-07T08:03:21;1.70;;;1.60;;
8042;SDS011;4064;48.132;11.366;2023-05-07T08:05:47;1.90;;;1.80;;
8042;SDS011;4064;48.132;11.366;2023-05-07T08:08:16;2.60;;;2.33;;
8042;SDS011;4064;48.132;11.366;2023-05-07T08:10:42;4.60;;;2.90;;
8042;SDS011;4064;48.132;11.366;2023-05-07T08:13:09;2.40;;;2.20;;
8042;SDS011;4064;48.132;11.366;2023-05-07T08:15:37;2.80;;;2.50;;
8042;SDS011;4064;48.132;11.366;2023-05-07T08:18:04;2.50;;;2.30;;
8042;SDS011;4064;48.132;11.366;2023-05-07T08:20:31;2.30;;;2.10;;
8042;SDS011;4064;48.132;11.366;2023-05-07T08:22:58;2.97;;;2.67;;
8042;SDS011;4064;48.132;11.366;2023-05-07T08:25:25;2.17;;;1.97;;
8042;SDS011;4064;48.132;11.366;2023-05-07T08:27:51;2.10;;;1.90;;
8042;SDS011;4064;48.132;11.366;2023-05-07T08:30:19;2.23;;;2.03;;
8042;SDS011;4064;48.132;11.366;2023-05-07T08:32:45;3.60;;;2.60;;
8042;SDS011;4064;48.132;11.366;2023-05-07T08:35:13;2.80;;;1.90;;
8042;SDS011;4064;48.132;11.366;2023-05-07T08:37:39;3.50;;;2.50;;
8042;SDS011;4064;48.132;11.366;2023-05-07T08:40:07;2.43;;;1.80;;
8042;SDS011;4064;48.132;11.366;2023-05-07T08:42:35;2.37;;;1.90;;
8042;SDS011;4064;48.132;11.366;2023-05-07T08:45:05;2.20;;;2.00;;
8042;SDS011;4064;48.132;11.366;2023-05-07T08:47:56;2.20;;;1.80;;
8042;SDS011;4064;48.132;11.366;2023-05-07T08:50:25;2.73;;;2.07;;
8042;SDS011;4064;48.132;11.366;2023-05-07T08:52:53;3.07;;;2.70;;
8042;SDS011;4064;48.132;11.366;2023-05-07T08:55:19;3.87;;;2.30;;
8042;SDS011;4064;48.132;11.366;2023-05-07T08:57:46;2.90;;;2.60;;
8042;SDS011;4064;48.132;11.366;2023-05-07T09:00:13;3.70;;;2.63;;
8042;SDS011;4064;48.132;11.366;2023-05-07T09:02:39;3.30;;;3.00;;
8042;SDS011;4064;48.132;11.366;2023-05-07T09:05:06;4.23;;;2.60;;
8042;SDS011;4064;48.132;11.366;2023-05-07T09:07:34;2.43;;;2.10;;
8042;SDS011;4064;48.132;11.366;2023-05-07T09:10:04;2.50;;;2.30;;
8042;SDS011;4064;48.132;11.366;2023-05-07T09:12:30;2.57;;;2.37;;
8042;SDS011;4064;48.132;11.366;2023-05-07T09:14:56;2.50;;;2.30;;
8042;SDS011;4064;48.132;11.366;2023-05-07T09:17:24;4.37;;;2.73;;
8042;SDS011;4064;48.132;11.366;2023-05-07T09:19:50;2.73;;;2.30;;
8042;SDS011;4064;48.132;11.366;2023-05-07T09:22:16;3.10;;;2.80;;
8042;SDS011;4064;48.132;11.366;2023-05-07T09:24:49;2.87;;;2.33;;
8042;SDS011;4064;48.132;11.366;2023-05-07T09:27:32;3.60;;;2.83;;
8042;SDS011;4064;48.132;11.366;2023-05-07T09:29:58;1.80;;;1.70;;
8042;SDS011;4064;48.132;11.366;2023-05-07T09:32:24;2.07;;;1.87;;
8042;SDS011;4064;48.132;11.366;2023-05-07T09:34:53;2.43;;;1.67;;
8042;SDS011;4064;48.132;11.366;2023-05-07T09:37:19;2.37;;;2.17;;
8042;SDS011;4064;48.132;11.366;2023-05-07T09:39:46;3.30;;;2.33;;
8042;SDS011;4064;48.132;11.366;2023-05-07T09:42:15;2.03;;;1.83;;
8042;SDS011;4064;48.132;11.366;2023-05-07T09:44:43;2.60;;;2.23;;
8042;SDS011;4064;48.132;11.366;2023-05-07T09:47:09;2.10;;;1.93;;
8042;SDS011;4064;48.132;11.366;2023-05-07T09:49:37;2.60;;;2.10;;
8042;SDS011;4064;48.132;11.366;2023-05-07T09:52:07;2.33;;;1.97;;
8042;SDS011;4064;48.132;11.366;2023-05-07T09:54:35;2.13;;;1.80;;
8042;SDS011;4064;48.132;11.366;2023-05-07T09:57:03;3.70;;;2.00;;
8042;SDS011;4064;48.132;11.366;2023-05-07T09:59:31;2.63;;;1.97;;
8042;SDS011;4064;48.132;11.366;2023-05-07T10:01:58;1.80;;;1.60;;
8042;SDS011;4064;48.132;11.366;2023-05-07T10:04:26;2.10;;;1.70;;
8042;SDS011;4064;48.132;11.366;2023-05-07T10:06:53;2.97;;;1.90;;
8042;SDS011;4064;48.132;11.366;2023-05-07T10:09:20;2.00;;;1.80;;
8042;SDS011;4064;48.132;11.366;2023-05-07T10:11:51;2.07;;;1.90;;
8042;SDS011;4064;48.132;11.366;2023-05-07T10:14:21;2.40;;;2.00;;
8042;SDS011;4064;48.132;11.366;2023-05-07T10:16:48;2.43;;;2.17;;
8042;SDS011;4064;48.132;11.366;2023-05-07T10:19:14;1.87;;;1.60;;
8042;SDS011;4064;48.132;11.366;2023-05-07T10:21:48;2.17;;;1.97;;
8042;SDS011;4064;48.132;11.366;2023-05-07T10:24:27;6.90;;;1.87;;
8042;SDS011;4064;48.132;11.366;2023-05-07T10:26:59;1.93;;;1.60;;
8042;SDS011;4064;48.132;11.366;2023-05-07T10:29:30;5.40;;;2.40;;
8042;SDS011;4064;48.132;11.366;2023-05-07T10:35:09;3.50;;;2.57;;
8042;SDS011;4064;48.132;11.366;2023-05-07T10:37:43;2.17;;;1.97;;
8042;SDS011;4064;48.132;11.366;2023-05-07T10:40:11;2.80;;;2.33;;
8042;SDS011;4064;48.132;11.366;2023-05-07T10:42:52;2.50;;;2.30;;
8042;SDS011;4064;48.132;11.366;2023-05-07T10:45:25;1.97;;;1.77;;
8042;SDS011;4064;48.132;11.366;2023-05-07T10:50:41;2.50;;;2.30;;
8042;SDS011;4064;48.132;11.366;2023-05-07T10:55:43;2.53;;;1.97;;
8042;SDS011;4064;48.132;11.366;2023-05-07T11:00:55;2.13;;;1.93;;
8042;SDS011;4064;48.132;11.366;2023-05-07T11:03:22;2.47;;;1.90;;
8042;SDS011;4064;48.132;11.366;2023-05-07T11:06:08;3.73;;;1.83;;
8042;SDS011;4064;48.132;11.366;2023-05-07T11:08:56;3.27;;;2.20;;
8042;SDS011;4064;48.132;11.366;2023-05-07T11:17:05;2.03;;;1.70;;
8042;SDS011;4064;48.132;11.366;2023-05-07T11:19:51;2.20;;;2.00;;
8042;SDS011;4064;48.132;11.366;2023-05-07T11:25:01;3.10;;;1.90;;
8042;SDS011;4064;48.132;11.366;2023-05-07T11:27:28;2.07;;;1.80;;
8042;SDS011;4064;48.132;11.366;2023-05-07T11:29:55;2.80;;;2.30;;
8042;SDS011;4064;48.132;11.366;2023-05-07T11:32:27;2.73;;;1.80;;
8042;SDS011;4064;48.132;11.366;2023-05-07T11:34:54;3.07;;;2.30;;
8042;SDS011;4064;48.132;11.366;2023-05-07T11:37:22;2.33;;;2.13;;
8042;SDS011;4064;48.132;11.366;2023-05-07T11:39:49;1.60;;;1.50;;
8042;SDS011;4064;48.132;11.366;2023-05-07T11:44:54;2.53;;;1.90;;
8042;SDS011;4064;48.132;11.366;2023-05-07T11:47:21;4.30;;;2.17;;
8042;SDS011;4064;48.132;11.366;2023-05-07T11:49:48;2.43;;;2.17;;
8042;SDS011;4064;48.132;11.366;2023-05-07T11:52:15;2.60;;;2.40;;
8042;SDS011;4064;48.132;11.366;2023-05-07T11:54:43;1.93;;;1.80;;
8042;SDS011;4064;48.132;11.366;2023-05-07T11:57:18;3.60;;;2.30;;
8042;SDS011;4064;48.132;11.366;2023-05-07T11:59:44;3.37;;;2.20;;
8042;SDS011;4064;48.132;11.366;2023-05-07T12:02:13;2.27;;;2.00;;
8042;SDS011;4064;48.132;11.366;2023-05-07T12:04:40;4.27;;;2.70;;
8042;SDS011;4064;48.132;11.366;2023-05-07T12:07:13;1.70;;;1.60;;
8042;SDS011;4064;48.132;11.366;2023-05-07T12:09:44;3.30;;;1.97;;
8042;SDS011;4064;48.132;11.366;2023-05-07T12:12:11;2.90;;;2.23;;
8042;SDS011;4064;48.132;11.366;2023-05-07T12:14:38;2.00;;;1.80;;
8042;SDS011;4064;48.132;11.366;2023-05-07T12:17:05;3.50;;;2.33;;
8042;SDS011;4064;48.132;11.366;2023-05-07T12:19:33;2.10;;;1.90;;
8042;SDS011;4064;48.132;11.366;2023-05-07T12:21:59;3.10;;;2.63;;
8042;SDS011;4064;48.132;11.366;2023-05-07T12:24:27;4.53;;;2.20;;
8042;SDS011;4064;48.132;11.366;2023-05-07T12:26:53;2.17;;;2.07;;
8042;SDS011;4064;48.132;11.366;2023-05-07T12:29:22;3.03;;;2.73;;
8042;SDS011;4064;48.132;11.366;2023-05-07T12:31:49;2.83;;;2.63;;
8042;SDS011;4064;48.132;11.366;2023-05-07T12:34:15;2.73;;;2.17;;
8042;SDS011;4064;48.132;11.366;2023-05-07T12:36:41;2.97;;;2.77;;
8042;SDS011;4064;48.132;11.366;2023-05-07T12:39:07;5.37;;;2.00;;
8042;SDS011;4064;48.132;11.366;2023-05-07T12:44:21;2.13;;;1.93;;
8042;SDS011;4064;48.132;11.366;2023-05-07T12:46:48;2.33;;;2.13;;
8042;SDS011;4064;48.132;11.366;2023-05-07T12:49:14;3.10;;;1.80;;
8042;SDS011;4064;48.132;11.366;2023-05-07T12:51:42;2.20;;;2.00;;
8042;SDS011;4064;48.132;11.366;2023-05-07T12:54:09;2.20;;;2.00;;
8042;SDS011;4064;48.132;11.366;2023-05-07T12:56:35;2.73;;;2.17;;
8042;SDS011;4064;48.132;11.366;2023-05-07T12:59:02;2.07;;;1.87;;
8042;SDS011;4064;48.132;11.366;2023-05-07T13:01:28;2.20;;;2.00;;
8042;SDS011;4064;48.132;11.366;2023-05-07T13:04:01;2.00;;;1.80;;
8042;SDS011;4064;48.132;11.366;2023-05-07T13:06:29;2.80;;;2.00;;
8042;SDS011;4064;48.132;11.366;2023-05-07T13:08:56;2.57;;;2.37;;
8042;SDS011;4064;48.132;11.366;2023-05-07T13:11:22;2.37;;;1.73;;
8042;SDS011;4064;48.132;11.366;2023-05-07T13:13:48;2.57;;;1.70;;
8042;SDS011;4064;48.132;11.366;2023-05-07T13:16:14;2.30;;;2.10;;
8042;SDS011;4064;48.132;11.366;2023-05-07T13:18:40;5.00;;;2.13;;
8042;SDS011;4064;48.132;11.366;2023-05-07T13:21:08;2.97;;;2.00;;
8042;SDS011;4064;48.132;11.366;2023-05-07T13:23:35;1.73;;;1.60;;
8042;SDS011;4064;48.132;11.366;2023-05-07T13:26:00;1.53;;;1.43;;
8042;SDS011;4064;48.132;11.366;2023-05-07T13:28:26;1.93;;;1.77;;
8042;SDS011;4064;48.132;11.366;2023-05-07T13:30:52;1.77;;;1.53;;
8042;SDS011;4064;48.132;11.366;2023-05-07T13:33:19;2.50;;;2.20;;
8042;SDS011;4064;48.132;11.366;2023-05-07T13:35:45;2.60;;;1.70;;
8042;SDS011;4064;48.132;11.366;2023-05-07T13:38:11;3.17;;;1.87;;
8042;SDS011;4064;48.132;11.366;2023-05-07T13:40:37;2.10;;;1.50;;
8042;SDS011;4064;48.132;11.366;2023-05-07T13:43:05;3.33;;;2.83;;
8042;SDS011;4064;48.132;11.366;2023-05-07T13:45:31;12.53;;;11.20;;
8042;SDS011;4064;48.132;11.366;2023-05-07T13:47:57;2.20;;;2.00;;
8042;SDS011;4064;48.132;11.366;2023-05-07T13:50:23;1.80;;;1.70;;
8042;SDS011;4064;48.132;11.366;2023-05-07T13:52:48;5.83;;;2.47;;
8042;SDS011;4064;48.132;11.366;2023-05-07T13:55:20;2.77;;;2.50;;
8042;SDS011;4064;48.132;11.366;2023-05-07T13:58:02;1.63;;;1.47;;
8042;SDS011;4064;48.132;11.366;2023-05-07T14:00:29;1.73;;;1.63;;
8042;SDS011;4064;48.132;11.366;2023-05-07T14:02:55;2.17;;;1.50;;
8042;SDS011;4064;48.132;11.366;2023-05-07T14:05:22;2.80;;;2.20;;
8042;SDS011;4064;48.132;11.366;2023-05-07T14:07:50;1.97;;;1.60;;
8042;SDS011;4064;48.132;11.366;2023-05-07T14:10:17;1.80;;;1.70;;
8042;SDS011;4064;48.132;11.366;2023-05-07T14:12:44;3.10;;;1.67;;
8042;SDS011;4064;48.132;11.366;2023-05-07T14:15:11;1.97;;;1.87;;
8042;SDS011;4064;48.132;11.366;2023-05-07T14:17:37;2.40;;;2.03;;
8042;SDS011;4064;48.132;11.366;2023-05-07T14:20:03;2.97;;;2.27;;
8042;SDS011;4064;48.132;11.366;2023-05-07T14:22:31;2.50;;;2.30;;
8042;SDS011;4064;48.132;11.366;2023-05-07T14:24:56;2.93;;;1.80;;
8042;SDS011;4064;48.132;11.366;2023-05-07T14:27:22;2.93;;;2.73;;
8042;SDS011;4064;48.132;11.366;2023-05-07T14:29:49;2.13;;;1.80;;
8042;SDS011;4064;48.132;11.366;2023-05-07T14:32:18;2.50;;;2.17;;
8042;SDS011;4064;48.132;11.366;2023-05-07T14:34:45;2.30;;;2.10;;
8042;SDS011;4064;48.132;11.366;2023-05-07T14:37:13;3.37;;;2.83;;
8042;SDS011;4064;48.132;11.366;2023-05-07T14:39:39;4.30;;;2.20;;
8042;SDS011;4064;48.132;11.366;2023-05-07T14:42:05;3.17;;;2.73;;
8042;SDS011;4064;48.132;11.366;2023-05-07T14:44:33;2.80;;;2.60;;
8042;SDS011;4064;48.132;11.366;2023-05-07T14:47:00;2.97;;;2.67;;
8042;SDS011;4064;48.132;11.366;2023-05-07T14:49:25;4.20;;;2.37;;
8042;SDS011;4064;48.132;11.366;2023-05-07T14:51:52;2.30;;;2.17;;
8042;SDS011;4064;48.132;11.366;2023-05-07T14:54:19;6.33;;;5.57;;
8042;SDS011;4064;48.132;11.366;2023-05-07T14:56:45;17.73;;;13.60;;
8042;SDS011;4064;48.132;11.366;2023-05-07T14:59:11;21.00;;;18.87;;
8042;SDS011;4064;48.132;11.366;2023-05-07T15:01:37;4.03;;;3.70;;
8042;SDS011;4064;48.132;11.366;2023-05-07T15:04:05;3.50;;;3.13;;
8042;SDS011;4064;48.132;11.366;2023-05-07T15:06:31;4.03;;;2.90;;
8042;SDS011;4064;48.132;11.366;2023-05-07T15:08:58;3.07;;;2.87;;
8042;SDS011;4064;48.132;11.366;2023-05-07T15:11:24;3.03;;;2.83;;
8042;SDS011;4064;48.132;11.366;2023-05-07T15:13:50;2.63;;;2.43;;
8042;SDS011;4064;48.132;11.366;2023-05-07T15:16:17;2.80;;;2.60;;
8042;SDS011;4064;48.132;11.366;2023-05-07T15:18:43;4.43;;;2.50;;
8042;SDS011;4064;48.132;11.366;2023-05-07T15:21:09;3.30;;;2.90;;
8042;SDS011;4064;48.132;11.366;2023-05-07T15:23:35;2.63;;;2.37;;